< < Back
Terminal Aerodrome Forecast


Current Version              Previous Versions:   1  2  3  4  5  6  7  8  9  

Terminal Aerodrome Forecast

558
FTUS44 KMRX 232320
TAFCHA
TAF
KCHA 232320Z 2400/2424 01003KT P6SM BKN250
     FM241200 03005KT P6SM FEW100
     FM241800 35005KT P6SM SCT100 SCT250=



Latest METAR

530
SAUS80 KWBC 250300 CCA
MTRCHA
METAR KCHA 250253Z 00000KT 10SM SCT250 11/08 A3008 RMK AO2 SLP184
T01110078 51009


USA.gov is the U.S. government's official web portal to all federal, state and local government web resources and services.